Time;durP1;ratioP1;P1;durP2;ratioP2;P2;SDS_P1;SDS_P2;PMS_P1;PMS_P2;Temp;Humidity;BMP_temperature;BMP_pressure;BME280_temperature;BME280_humidity;BME280_pressure;Samples;Min_cycle;Max_cycle;Signal;HPM_P1;HPM_P2
2022/03/29 00:00:58;;;;;;;33.67;26.20;;;;;;;;;;2098420;28;20198;-54
2022/03/29 00:01:59;;;;;;;33.53;26.53;;;;;;;;;;2094797;28;20189;-55
2022/03/29 00:02:59;;;;;;;34.83;25.93;;;;;;;;;;2099578;28;20183;-58
2022/03/29 00:04:00;;;;;;;37.83;27.17;;;;;;;;;;2096972;28;20180;-55
2022/03/29 00:05:04;;;;;;;36.17;25.67;;;;;;;;;;2096003;28;20286;-53
2022/03/29 00:06:04;;;;;;;36.33;26.70;;;;;;;;;;2099619;28;20171;-55
2022/03/29 00:07:04;;;;;;;33.80;26.00;;;;;;;;;;2099426;28;20162;-57
2022/03/29 00:08:05;;;;;;;32.43;25.20;;;;;;;;;;2091501;28;20195;-55
2022/03/29 00:09:05;;;;;;;33.57;25.23;;;;;;;;;;2089886;28;20719;-54
2022/03/29 00:10:06;;;;;;;33.63;25.43;;;;;;;;;;2097130;28;20183;-55
2022/03/29 00:11:06;;;;;;;35.77;26.53;;;;;;;;;;2102162;28;20194;-56
2022/03/29 00:12:07;;;;;;;32.60;26.27;;;;;;;;;;2100652;28;20256;-57
2022/03/29 00:13:07;;;;;;;32.15;25.10;;;;;;;;;;2099182;28;20177;-56
2022/03/29 00:14:07;;;;;;;32.60;25.57;;;;;;;;;;2101452;28;20198;-52
2022/03/29 00:15:08;;;;;;;31.48;24.42;;;;;;;;;;2098819;28;20201;-53
2022/03/29 00:16:08;;;;;;;31.77;25.23;;;;;;;;;;2099399;28;20177;-56
2022/03/29 00:17:08;;;;;;;30.70;24.97;;;;;;;;;;2101978;28;20206;-59
2022/03/29 00:18:08;;;;;;;30.90;24.58;;;;;;;;;;2096000;28;20191;-55
2022/03/29 00:19:09;;;;;;;29.02;23.67;;;;;;;;;;2098906;28;20175;-57
2022/03/29 00:20:09;;;;;;;32.58;24.63;;;;;;;;;;2092721;28;20232;-56
2022/03/29 00:21:10;;;;;;;28.37;23.33;;;;;;;;;;2091508;28;20171;-57
2022/03/29 00:22:10;;;;;;;27.43;23.77;;;;;;;;;;2101211;28;20197;-56
2022/03/29 00:23:11;;;;;;;29.25;23.60;;;;;;;;;;2101418;28;20699;-54
2022/03/29 00:24:11;;;;;;;27.80;22.33;;;;;;;;;;2100581;28;20334;-55
2022/03/29 00:25:11;;;;;;;32.67;24.20;;;;;;;;;;2097170;28;20172;-55
2022/03/29 00:26:11;;;;;;;31.20;24.53;;;;;;;;;;2097955;28;20186;-55
2022/03/29 00:27:12;;;;;;;33.25;25.92;;;;;;;;;;2101735;28;20183;-54
2022/03/29 00:28:13;;;;;;;29.27;25.17;;;;;;;;;;2100659;28;20198;-55
2022/03/29 00:29:14;;;;;;;32.35;25.60;;;;;;;;;;2092101;28;20209;-54
2022/03/29 00:30:16;;;;;;;30.98;25.02;;;;;;;;;;2091987;28;20241;-54
2022/03/29 00:31:17;;;;;;;33.78;25.45;;;;;;;;;;2100215;28;20211;-55
2022/03/29 00:32:18;;;;;;;33.10;25.65;;;;;;;;;;2099422;28;20534;-55
2022/03/29 00:33:18;;;;;;;30.90;23.42;;;;;;;;;;2098761;28;20173;-54
2022/03/29 00:34:18;;;;;;;29.85;23.60;;;;;;;;;;2093808;28;20490;-54
2022/03/29 00:35:19;;;;;;;30.77;24.70;;;;;;;;;;2088774;28;20680;-56
2022/03/29 00:36:19;;;;;;;31.52;24.17;;;;;;;;;;2084187;28;20173;-55
2022/03/29 00:37:19;;;;;;;31.98;24.00;;;;;;;;;;2085708;28;20184;-55
2022/03/29 00:38:20;;;;;;;29.73;23.93;;;;;;;;;;2092330;22;20228;-61
2022/03/29 00:39:20;;;;;;;28.47;23.70;;;;;;;;;;2081566;28;20192;-59
2022/03/29 00:40:20;;;;;;;31.80;24.05;;;;;;;;;;2071140;28;20251;-60
2022/03/29 00:41:21;;;;;;;29.90;23.63;;;;;;;;;;2073564;28;20238;-58
2022/03/29 00:42:21;;;;;;;28.47;24.37;;;;;;;;;;2080308;28;20215;-63
2022/03/29 00:43:21;;;;;;;29.47;23.47;;;;;;;;;;2082086;28;20259;-62
2022/03/29 00:44:28;;;;;;;28.33;22.92;;;;;;;;;;2081820;28;20703;-61
2022/03/29 00:45:29;;;;;;;28.20;23.58;;;;;;;;;;2081744;28;20255;-64
2022/03/29 00:46:29;;;;;;;27.03;23.20;;;;;;;;;;2080828;28;20853;-63
2022/03/29 00:47:29;;;;;;;32.57;24.03;;;;;;;;;;2081800;28;20222;-62
2022/03/29 00:48:30;;;;;;;32.77;24.23;;;;;;;;;;2080942;28;20279;-63
2022/03/29 00:49:30;;;;;;;28.77;23.40;;;;;;;;;;2073093;28;20180;-58
2022/03/29 00:50:31;;;;;;;29.27;22.80;;;;;;;;;;2073266;28;20169;-58
2022/03/29 00:51:31;;;;;;;29.67;23.43;;;;;;;;;;2081599;28;20540;-62
2022/03/29 00:52:32;;;;;;;29.73;23.30;;;;;;;;;;2073159;28;20191;-63
2022/03/29 00:53:32;;;;;;;29.25;23.02;;;;;;;;;;2073545;28;20184;-64
2022/03/29 00:54:34;;;;;;;28.57;23.40;;;;;;;;;;2080808;28;20885;-61
2022/03/29 00:55:34;;;;;;;28.75;23.30;;;;;;;;;;2083485;28;20171;-60
2022/03/29 00:56:35;;;;;;;30.40;22.93;;;;;;;;;;2082356;28;20181;-60
2022/03/29 00:57:35;;;;;;;28.63;22.10;;;;;;;;;;2074233;28;20176;-61
2022/03/29 00:58:35;;;;;;;30.43;23.50;;;;;;;;;;2073373;28;20208;-62
2022/03/29 00:59:36;;;;;;;30.43;23.43;;;;;;;;;;2073530;28;20235;-61
2022/03/29 01:00:36;;;;;;;28.77;22.67;;;;;;;;;;2078868;28;20315;-62
2022/03/29 01:01:36;;;;;;;31.67;23.77;;;;;;;;;;2073402;28;20230;-60
2022/03/29 01:02:36;;;;;;;31.23;22.73;;;;;;;;;;2073226;28;20301;-62
2022/03/29 01:03:37;;;;;;;29.17;22.45;;;;;;;;;;2082724;28;20642;-61
2022/03/29 01:04:37;;;;;;;30.13;22.97;;;;;;;;;;2080459;28;20192;-62
2022/03/29 01:05:38;;;;;;;29.73;23.35;;;;;;;;;;2081695;28;20180;-62
2022/03/29 01:06:38;;;;;;;28.10;22.17;;;;;;;;;;2082261;28;20251;-63
2022/03/29 01:07:39;;;;;;;30.27;23.67;;;;;;;;;;2081707;28;20629;-61
2022/03/29 01:08:39;;;;;;;27.93;22.30;;;;;;;;;;2082479;28;20267;-63
2022/03/29 01:09:40;;;;;;;28.43;22.90;;;;;;;;;;2081957;28;20699;-64
2022/03/29 01:10:43;;;;;;;31.25;22.73;;;;;;;;;;2073394;28;20324;-62
2022/03/29 01:11:43;;;;;;;30.00;22.80;;;;;;;;;;2073672;28;20191;-61
2022/03/29 01:12:44;;;;;;;27.43;22.13;;;;;;;;;;2083600;28;20539;-64
2022/03/29 01:13:44;;;;;;;29.48;23.38;;;;;;;;;;2058752;28;20186;-62
2022/03/29 01:14:44;;;;;;;30.97;23.33;;;;;;;;;;2064566;28;20229;-57
2022/03/29 01:15:45;;;;;;;30.88;23.33;;;;;;;;;;2082513;28;20571;-60
2022/03/29 01:18:05;;;;;;;29.90;22.23;;;;;;;;;;2081784;28;20168;-60
2022/03/29 01:19:08;;;;;;;28.20;23.03;;;;;;;;;;2081626;28;20242;-61
2022/03/29 01:20:11;;;;;;;31.33;23.40;;;;;;;;;;2073992;28;20184;-62
2022/03/29 01:21:15;;;;;;;30.83;22.67;;;;;;;;;;2073636;28;20192;-63
2022/03/29 01:22:15;;;;;;;27.23;22.23;;;;;;;;;;2082228;28;20176;-63
2022/03/29 01:23:16;;;;;;;29.13;23.63;;;;;;;;;;2081736;28;20183;-61
2022/03/29 01:24:16;;;;;;;29.57;23.13;;;;;;;;;;2072858;28;20181;-62
2022/03/29 01:25:20;;;;;;;31.20;23.00;;;;;;;;;;2072728;28;20191;-61
2022/03/29 01:26:21;;;;;;;31.77;24.30;;;;;;;;;;2071936;28;20642;-59
2022/03/29 01:27:21;;;;;;;27.07;22.73;;;;;;;;;;2073434;28;20200;-64
2022/03/29 01:28:22;;;;;;;28.25;22.52;;;;;;;;;;2065035;28;20208;-62
2022/03/29 01:29:23;;;;;;;26.17;21.23;;;;;;;;;;2074009;28;20212;-59
2022/03/29 01:30:23;;;;;;;30.83;23.53;;;;;;;;;;2073586;28;20181;-61
2022/03/29 01:31:24;;;;;;;29.50;21.70;;;;;;;;;;2082098;28;20184;-62
2022/03/29 01:32:28;;;;;;;32.28;21.80;;;;;;;;;;2079446;28;20276;-63
2022/03/29 01:33:29;;;;;;;27.37;22.57;;;;;;;;;;2072633;28;20185;-62
2022/03/29 01:34:30;;;;;;;27.97;22.03;;;;;;;;;;2072700;28;20348;-61
2022/03/29 01:35:30;;;;;;;27.58;22.15;;;;;;;;;;2082238;28;20172;-62
2022/03/29 01:36:31;;;;;;;26.77;22.35;;;;;;;;;;2082541;28;20172;-59
2022/03/29 01:37:31;;;;;;;27.90;22.73;;;;;;;;;;2064898;28;20169;-60
2022/03/29 01:38:31;;;;;;;27.67;21.88;;;;;;;;;;2065522;28;20211;-60
2022/03/29 01:39:35;;;;;;;27.70;22.47;;;;;;;;;;2082962;28;20534;-58
2022/03/29 01:40:36;;;;;;;28.25;21.13;;;;;;;;;;2082911;28;20184;-59
2022/03/29 01:41:38;;;;;;;27.30;21.75;;;;;;;;;;2083350;28;20168;-61
2022/03/29 01:42:41;;;;;;;27.13;21.33;;;;;;;;;;2082968;28;20180;-60
2022/03/29 01:43:41;;;;;;;25.87;21.67;;;;;;;;;;2082010;28;20245;-59
2022/03/29 01:44:41;;;;;;;26.05;20.42;;;;;;;;;;2081164;28;20659;-57
2022/03/29 01:45:42;;;;;;;28.80;21.15;;;;;;;;;;2082163;28;20192;-63
2022/03/29 01:46:42;;;;;;;26.52;20.90;;;;;;;;;;2072670;28;21100;-59
2022/03/29 01:47:42;;;;;;;27.83;21.02;;;;;;;;;;2066253;28;20181;-58
2022/03/29 01:48:43;;;;;;;27.40;21.15;;;;;;;;;;2081478;28;20212;-60
2022/03/29 01:49:43;;;;;;;26.63;21.60;;;;;;;;;;2082757;28;20179;-61
2022/03/29 01:50:45;;;;;;;26.83;21.60;;;;;;;;;;2076517;28;20679;-60
2022/03/29 01:51:46;;;;;;;29.05;21.88;;;;;;;;;;2083454;28;20199;-60
2022/03/29 01:52:47;;;;;;;23.40;20.15;;;;;;;;;;2084471;28;20184;-59
2022/03/29 01:53:51;;;;;;;26.02;20.33;;;;;;;;;;2079269;28;20165;-60
2022/03/29 01:54:52;;;;;;;25.52;21.05;;;;;;;;;;2071496;28;20530;-64
2022/03/29 01:55:56;;;;;;;28.15;21.85;;;;;;;;;;2082828;28;20172;-62
2022/03/29 01:56:57;;;;;;;27.45;21.45;;;;;;;;;;2075161;28;20249;-61
2022/03/29 01:57:57;;;;;;;24.73;20.20;;;;;;;;;;2076988;28;20181;-62
2022/03/29 01:58:58;;;;;;;24.40;20.17;;;;;;;;;;2077413;28;20205;-59
2022/03/29 02:01:17;;;;;;;27.08;20.83;;;;;;;;;;2082359;28;20266;-62
2022/03/29 02:02:18;;;;;;;30.17;21.67;;;;;;;;;;2083008;28;20175;-64
2022/03/29 02:03:18;;;;;;;25.90;20.45;;;;;;;;;;2084009;28;20188;-62
2022/03/29 02:04:19;;;;;;;28.77;22.10;;;;;;;;;;2079850;28;20427;-64
2022/03/29 02:05:20;;;;;;;29.00;20.80;;;;;;;;;;2081871;28;20188;-59
2022/03/29 02:06:20;;;;;;;29.00;22.05;;;;;;;;;;2083557;28;20183;-63
2022/03/29 02:07:22;;;;;;;23.73;19.50;;;;;;;;;;2083876;28;20248;-63
2022/03/29 02:08:23;;;;;;;25.42;20.30;;;;;;;;;;2078123;28;20212;-65
2022/03/29 02:09:23;;;;;;;29.27;21.90;;;;;;;;;;2072940;28;20264;-62
2022/03/29 02:10:23;;;;;;;28.27;21.67;;;;;;;;;;2074701;28;20189;-63
2022/03/29 02:11:23;;;;;;;30.77;21.77;;;;;;;;;;2082363;28;20172;-61
2022/03/29 02:12:24;;;;;;;26.27;20.45;;;;;;;;;;2083000;28;20451;-61
2022/03/29 02:13:24;;;;;;;25.63;20.63;;;;;;;;;;2081787;28;20172;-61
2022/03/29 02:14:24;;;;;;;30.45;20.90;;;;;;;;;;2081126;28;20588;-59
2022/03/29 02:15:25;;;;;;;31.05;22.02;;;;;;;;;;2081716;28;20735;-59
2022/03/29 02:16:25;;;;;;;28.90;21.48;;;;;;;;;;2081861;28;20183;-64
2022/03/29 02:17:25;;;;;;;27.87;21.33;;;;;;;;;;2081458;28;20202;-61
2022/03/29 02:18:25;;;;;;;31.42;21.98;;;;;;;;;;2080957;28;20197;-61
2022/03/29 02:19:26;;;;;;;30.17;21.52;;;;;;;;;;2072833;28;20192;-58
2022/03/29 02:20:26;;;;;;;31.10;22.35;;;;;;;;;;2071641;28;20279;-62
2022/03/29 02:21:27;;;;;;;29.73;21.67;;;;;;;;;;2072599;28;20177;-59
2022/03/29 02:22:27;;;;;;;31.17;22.50;;;;;;;;;;2074103;28;20204;-62
2022/03/29 02:23:27;;;;;;;27.70;21.87;;;;;;;;;;2076740;28;20610;-62
2022/03/29 02:24:27;;;;;;;29.63;22.65;;;;;;;;;;2081044;28;20688;-64
2022/03/29 02:25:27;;;;;;;27.83;20.92;;;;;;;;;;2076660;28;20169;-63
2022/03/29 02:26:28;;;;;;;29.25;22.00;;;;;;;;;;2082327;28;20168;-63
2022/03/29 02:27:28;;;;;;;32.22;22.30;;;;;;;;;;2076637;28;20235;-59
2022/03/29 02:28:28;;;;;;;26.03;20.70;;;;;;;;;;2082458;28;20692;-63
2022/03/29 02:29:28;;;;;;;27.93;21.63;;;;;;;;;;2082372;28;20671;-64
2022/03/29 02:30:29;;;;;;;29.10;22.02;;;;;;;;;;2076658;28;20173;-61
2022/03/29 02:31:29;;;;;;;31.40;22.52;;;;;;;;;;2083645;28;20180;-61
2022/03/29 02:32:29;;;;;;;31.42;22.83;;;;;;;;;;2083746;28;20271;-62
2022/03/29 02:33:30;;;;;;;29.45;22.10;;;;;;;;;;2082250;28;20541;-63
2022/03/29 02:34:30;;;;;;;27.23;20.55;;;;;;;;;;2083711;28;20184;-64
2022/03/29 02:35:30;;;;;;;26.95;20.73;;;;;;;;;;2083680;28;20180;-63
2022/03/29 02:36:31;;;;;;;26.65;20.48;;;;;;;;;;2083296;28;20292;-61
2022/03/29 02:37:31;;;;;;;28.33;21.67;;;;;;;;;;2075854;28;20171;-63
2022/03/29 02:38:31;;;;;;;28.30;21.27;;;;;;;;;;2075687;28;20288;-57
2022/03/29 02:39:31;;;;;;;29.73;22.75;;;;;;;;;;2084282;28;20184;-58
2022/03/29 02:40:32;;;;;;;29.23;21.70;;;;;;;;;;2083017;28;20717;-60
2022/03/29 02:41:32;;;;;;;27.40;21.67;;;;;;;;;;2082635;28;20176;-60
2022/03/29 02:42:32;;;;;;;32.83;23.23;;;;;;;;;;2072535;28;20169;-62
2022/03/29 02:43:33;;;;;;;32.00;22.33;;;;;;;;;;2064399;28;20173;-62
2022/03/29 02:44:33;;;;;;;32.90;24.08;;;;;;;;;;2071807;28;20189;-61
2022/03/29 02:45:33;;;;;;;31.10;23.40;;;;;;;;;;2082072;28;20307;-60
2022/03/29 02:46:34;;;;;;;30.60;23.50;;;;;;;;;;2081390;28;20194;-59
2022/03/29 02:47:34;;;;;;;29.85;22.75;;;;;;;;;;2079150;28;20208;-61
2022/03/29 02:48:34;;;;;;;33.47;22.35;;;;;;;;;;2081185;28;20720;-59
2022/03/29 02:49:34;;;;;;;30.17;22.43;;;;;;;;;;2076427;28;20879;-60
2022/03/29 02:50:35;;;;;;;31.77;22.23;;;;;;;;;;2072409;28;20173;-60
2022/03/29 02:51:35;;;;;;;29.42;22.20;;;;;;;;;;2064416;28;20268;-64
2022/03/29 02:52:42;;;;;;;31.33;23.40;;;;;;;;;;2081292;28;20554;-57
2022/03/29 02:53:43;;;;;;;30.73;22.02;;;;;;;;;;2072462;28;20673;-61
2022/03/29 02:54:43;;;;;;;30.85;23.10;;;;;;;;;;2071688;28;20169;-62
2022/03/29 02:55:44;;;;;;;29.52;22.23;;;;;;;;;;2080624;28;20260;-63
2022/03/29 02:56:45;;;;;;;35.78;23.63;;;;;;;;;;2080960;28;20446;-64
2022/03/29 02:57:46;;;;;;;29.08;21.67;;;;;;;;;;2079852;28;20173;-61
2022/03/29 02:58:46;;;;;;;30.15;22.80;;;;;;;;;;2080899;28;20176;-62
2022/03/29 02:59:46;;;;;;;35.47;24.08;;;;;;;;;;2072598;28;20165;-63
2022/03/29 03:00:47;;;;;;;31.05;23.65;;;;;;;;;;2072166;28;20181;-62
2022/03/29 03:01:48;;;;;;;32.83;23.08;;;;;;;;;;2080733;28;20656;-63
2022/03/29 03:02:53;;;;;;;34.17;23.60;;;;;;;;;;2081451;28;20207;-64
2022/03/29 03:03:53;;;;;;;31.95;24.65;;;;;;;;;;2077343;28;20180;-59
2022/03/29 03:04:53;;;;;;;34.42;23.83;;;;;;;;;;2079453;28;20168;-60
2022/03/29 03:05:53;;;;;;;32.10;24.05;;;;;;;;;;2076333;28;20173;-62
2022/03/29 03:06:54;;;;;;;36.20;25.55;;;;;;;;;;2080902;28;20625;-63
2022/03/29 03:07:54;;;;;;;31.10;23.70;;;;;;;;;;2072466;28;20657;-62
2022/03/29 03:08:54;;;;;;;32.55;23.02;;;;;;;;;;2064120;28;20213;-61
2022/03/29 03:09:55;;;;;;;30.63;22.23;;;;;;;;;;2072134;28;20192;-63
2022/03/29 03:10:55;;;;;;;32.20;24.17;;;;;;;;;;2080886;28;20587;-63
2022/03/29 03:11:56;;;;;;;34.53;25.20;;;;;;;;;;2081051;28;20241;-63
2022/03/29 03:12:56;;;;;;;29.08;23.30;;;;;;;;;;2071871;28;20204;-59
2022/03/29 03:13:56;;;;;;;31.25;23.67;;;;;;;;;;2072656;28;20948;-62
2022/03/29 03:14:56;;;;;;;30.58;22.98;;;;;;;;;;2071839;28;20177;-61
2022/03/29 03:15:56;;;;;;;29.92;21.83;;;;;;;;;;2071060;28;20695;-63
2022/03/29 03:16:57;;;;;;;38.45;24.10;;;;;;;;;;2079609;28;20184;-60
2022/03/29 03:17:58;;;;;;;37.10;25.48;;;;;;;;;;2081325;28;20160;-61
2022/03/29 03:18:58;;;;;;;32.25;23.98;;;;;;;;;;2072410;28;20171;-57
2022/03/29 03:19:58;;;;;;;36.38;25.48;;;;;;;;;;2072403;28;20195;-62
2022/03/29 03:20:58;;;;;;;34.22;24.63;;;;;;;;;;2075418;28;20235;-59
2022/03/29 03:21:59;;;;;;;35.97;24.55;;;;;;;;;;2076679;28;20256;-61
2022/03/29 03:23:00;;;;;;;34.03;24.58;;;;;;;;;;2081377;28;20196;-63
2022/03/29 03:24:00;;;;;;;35.80;24.30;;;;;;;;;;2081299;28;20181;-59
2022/03/29 03:25:01;;;;;;;33.08;23.48;;;;;;;;;;2080832;28;20735;-62
2022/03/29 03:26:01;;;;;;;30.02;22.83;;;;;;;;;;2080952;28;20176;-65
2022/03/29 03:27:01;;;;;;;35.58;24.83;;;;;;;;;;2077574;28;20195;-62
2022/03/29 03:28:02;;;;;;;31.13;23.08;;;;;;;;;;2081522;28;20222;-60
2022/03/29 03:29:02;;;;;;;33.37;23.93;;;;;;;;;;2072353;28;20180;-62
2022/03/29 03:30:03;;;;;;;31.87;24.40;;;;;;;;;;2072621;28;20184;-62
2022/03/29 03:31:03;;;;;;;34.88;24.42;;;;;;;;;;2082126;28;20287;-62
2022/03/29 03:32:04;;;;;;;35.03;24.33;;;;;;;;;;2081737;28;20246;-65
2022/03/29 03:33:04;;;;;;;32.20;24.27;;;;;;;;;;2082504;28;20179;-63
2022/03/29 03:34:04;;;;;;;34.45;23.05;;;;;;;;;;2080433;28;20176;-62
2022/03/29 03:35:05;;;;;;;39.08;24.77;;;;;;;;;;2078360;28;20192;-63
2022/03/29 03:36:05;;;;;;;34.53;24.52;;;;;;;;;;2073217;28;20173;-61
2022/03/29 03:37:06;;;;;;;35.58;24.05;;;;;;;;;;2073752;28;20157;-62
2022/03/29 03:38:07;;;;;;;31.55;24.27;;;;;;;;;;2079837;28;20204;-62
2022/03/29 03:39:07;;;;;;;30.00;22.40;;;;;;;;;;2078686;28;20176;-62
2022/03/29 03:40:09;;;;;;;31.30;22.48;;;;;;;;;;2081765;28;20211;-63
2022/03/29 03:41:09;;;;;;;33.65;24.60;;;;;;;;;;2082187;28;20644;-63
2022/03/29 03:42:12;;;;;;;33.83;24.20;;;;;;;;;;2081664;28;20208;-63
2022/03/29 03:43:12;;;;;;;33.17;23.40;;;;;;;;;;2073958;28;20183;-63
2022/03/29 03:44:12;;;;;;;31.02;23.08;;;;;;;;;;2072404;28;20177;-63
2022/03/29 03:45:13;;;;;;;37.63;24.60;;;;;;;;;;2072847;28;20181;-62
2022/03/29 03:46:13;;;;;;;32.65;23.15;;;;;;;;;;2069606;28;20181;-61
2022/03/29 03:47:13;;;;;;;34.65;24.25;;;;;;;;;;2075801;28;20263;-61
2022/03/29 03:48:13;;;;;;;36.75;24.85;;;;;;;;;;2081209;28;20206;-60
2022/03/29 03:49:14;;;;;;;34.92;24.90;;;;;;;;;;2080882;28;20180;-60
2022/03/29 03:50:14;;;;;;;32.50;24.52;;;;;;;;;;2081471;28;20254;-60
2022/03/29 03:51:15;;;;;;;34.47;23.65;;;;;;;;;;2081458;28;20258;-65
2022/03/29 03:52:15;;;;;;;32.88;23.13;;;;;;;;;;2080937;28;20637;-59
2022/03/29 03:53:15;;;;;;;38.47;24.15;;;;;;;;;;2081248;28;20168;-62
2022/03/29 03:54:15;;;;;;;34.08;24.17;;;;;;;;;;2081110;28;20173;-60
2022/03/29 03:55:16;;;;;;;34.67;24.58;;;;;;;;;;2081404;28;20186;-60
2022/03/29 03:56:16;;;;;;;38.17;24.77;;;;;;;;;;2081671;28;20250;-60
2022/03/29 03:57:17;;;;;;;36.67;24.73;;;;;;;;;;2081460;28;20188;-58
2022/03/29 03:58:18;;;;;;;34.67;24.63;;;;;;;;;;2081267;28;20196;-60
2022/03/29 03:59:18;;;;;;;36.80;24.27;;;;;;;;;;2081399;28;20181;-64
2022/03/29 04:00:21;;;;;;;36.65;24.10;;;;;;;;;;2081606;28;20224;-61
2022/03/29 04:01:21;;;;;;;32.15;22.88;;;;;;;;;;2081613;28;20200;-62
2022/03/29 04:02:22;;;;;;;33.42;23.23;;;;;;;;;;2072838;28;20172;-62
2022/03/29 04:03:22;;;;;;;36.10;23.47;;;;;;;;;;2072469;28;20631;-62
2022/03/29 04:04:22;;;;;;;32.80;24.08;;;;;;;;;;2081054;28;20877;-60
2022/03/29 04:05:23;;;;;;;31.98;24.23;;;;;;;;;;2081372;28;20180;-60
2022/03/29 04:06:24;;;;;;;31.92;24.80;;;;;;;;;;2081405;28;20271;-60
2022/03/29 04:07:24;;;;;;;32.83;23.38;;;;;;;;;;2081363;28;20168;-63
2022/03/29 04:08:24;;;;;;;32.13;23.30;;;;;;;;;;2081517;28;20196;-62
2022/03/29 04:09:25;;;;;;;33.35;24.30;;;;;;;;;;2081412;28;20210;-62
2022/03/29 04:10:26;;;;;;;31.90;22.88;;;;;;;;;;2081468;28;20175;-61
2022/03/29 04:11:26;;;;;;;36.30;23.75;;;;;;;;;;2081292;28;20681;-64
2022/03/29 04:12:27;;;;;;;35.05;23.80;;;;;;;;;;2081282;28;20247;-62
2022/03/29 04:13:28;;;;;;;31.40;24.08;;;;;;;;;;2081418;28;20174;-64
2022/03/29 04:14:28;;;;;;;34.33;24.38;;;;;;;;;;2081064;28;20177;-62
2022/03/29 04:15:29;;;;;;;34.25;23.75;;;;;;;;;;2081312;28;20505;-62
2022/03/29 04:16:29;;;;;;;37.80;24.42;;;;;;;;;;2081399;28;20214;-60
2022/03/29 04:17:31;;;;;;;34.15;24.63;;;;;;;;;;2081467;28;20170;-64
2022/03/29 04:18:32;;;;;;;35.20;24.13;;;;;;;;;;2081185;28;20188;-61
2022/03/29 04:19:32;;;;;;;33.00;24.50;;;;;;;;;;2081399;28;20642;-58
2022/03/29 04:20:32;;;;;;;35.63;24.52;;;;;;;;;;2081161;28;20179;-60
2022/03/29 04:21:32;;;;;;;37.75;25.23;;;;;;;;;;2081412;28;20257;-59
2022/03/29 04:22:33;;;;;;;31.52;24.63;;;;;;;;;;2081333;28;20214;-61
2022/03/29 04:23:33;;;;;;;33.15;23.85;;;;;;;;;;2081399;28;20172;-62
2022/03/29 04:24:33;;;;;;;31.95;23.75;;;;;;;;;;2081039;28;20656;-62
2022/03/29 04:25:34;;;;;;;32.40;24.00;;;;;;;;;;2081435;28;20180;-62
2022/03/29 04:26:34;;;;;;;35.30;23.48;;;;;;;;;;2081382;28;20274;-60
2022/03/29 04:27:34;;;;;;;33.53;24.80;;;;;;;;;;2081298;28;20254;-61
2022/03/29 04:28:35;;;;;;;34.08;23.13;;;;;;;;;;2081257;28;20211;-59
2022/03/29 04:29:35;;;;;;;36.95;25.80;;;;;;;;;;2072667;28;20168;-61
2022/03/29 04:30:35;;;;;;;34.30;23.77;;;;;;;;;;2064220;28;20300;-62
2022/03/29 04:31:35;;;;;;;35.92;24.83;;;;;;;;;;2071281;28;20236;-64
2022/03/29 04:32:36;;;;;;;32.73;24.47;;;;;;;;;;2080279;28;20169;-61
2022/03/29 04:33:37;;;;;;;31.65;23.88;;;;;;;;;;2081227;28;20177;-63
2022/03/29 04:34:38;;;;;;;35.80;24.97;;;;;;;;;;2075494;28;20165;-65
2022/03/29 04:35:38;;;;;;;33.67;23.85;;;;;;;;;;2079980;28;20637;-63
2022/03/29 04:36:38;;;;;;;34.13;24.83;;;;;;;;;;2080529;28;20275;-63
2022/03/29 04:37:39;;;;;;;37.90;25.20;;;;;;;;;;2072759;28;20260;-63
2022/03/29 04:38:39;;;;;;;34.78;24.85;;;;;;;;;;2065503;28;20224;-62
2022/03/29 04:39:39;;;;;;;34.25;24.05;;;;;;;;;;2081414;28;20164;-61
2022/03/29 04:40:40;;;;;;;33.53;23.88;;;;;;;;;;2080482;28;20255;-61
2022/03/29 04:41:40;;;;;;;34.60;24.60;;;;;;;;;;2074189;28;20201;-63
2022/03/29 04:42:41;;;;;;;36.03;25.85;;;;;;;;;;2080733;28;20157;-63
2022/03/29 04:43:41;;;;;;;34.70;24.10;;;;;;;;;;2080899;28;20184;-54
2022/03/29 04:44:42;;;;;;;35.80;24.77;;;;;;;;;;2080012;28;20547;-62
2022/03/29 04:45:42;;;;;;;34.05;24.50;;;;;;;;;;2080647;28;20173;-62
2022/03/29 04:46:42;;;;;;;36.35;24.50;;;;;;;;;;2084428;28;20518;-65
2022/03/29 04:47:43;;;;;;;35.37;25.23;;;;;;;;;;2080305;28;20637;-61
2022/03/29 04:48:44;;;;;;;35.57;24.93;;;;;;;;;;2081327;28;20188;-63
2022/03/29 04:49:44;;;;;;;39.58;26.45;;;;;;;;;;2079561;28;20164;-63
2022/03/29 04:50:45;;;;;;;35.08;24.98;;;;;;;;;;2079875;28;20177;-62
2022/03/29 04:51:45;;;;;;;35.77;24.40;;;;;;;;;;2079509;28;20179;-61
2022/03/29 04:52:46;;;;;;;35.88;24.48;;;;;;;;;;2069143;28;20606;-61
2022/03/29 04:53:46;;;;;;;33.28;23.58;;;;;;;;;;2072369;28;20697;-64
2022/03/29 04:54:47;;;;;;;32.85;24.40;;;;;;;;;;2078574;28;20170;-62
2022/03/29 04:55:47;;;;;;;35.50;25.20;;;;;;;;;;2074582;28;20173;-61
2022/03/29 04:56:47;;;;;;;38.28;25.63;;;;;;;;;;2083760;28;20174;-62
2022/03/29 04:57:48;;;;;;;43.55;27.75;;;;;;;;;;2082912;28;20663;-61
2022/03/29 04:58:49;;;;;;;40.15;26.30;;;;;;;;;;2074486;28;20212;-61
2022/03/29 04:59:49;;;;;;;33.28;23.48;;;;;;;;;;2073994;28;20176;-63
2022/03/29 05:00:50;;;;;;;37.17;25.30;;;;;;;;;;2082169;28;20613;-59
2022/03/29 05:01:50;;;;;;;33.97;24.50;;;;;;;;;;2081323;28;20212;-63
2022/03/29 05:02:50;;;;;;;36.03;25.25;;;;;;;;;;2073407;28;20181;-62
2022/03/29 05:03:50;;;;;;;38.53;25.43;;;;;;;;;;2073688;28;20169;-63
2022/03/29 05:04:51;;;;;;;40.63;26.27;;;;;;;;;;2081813;28;20613;-61
2022/03/29 05:05:51;;;;;;;35.72;24.50;;;;;;;;;;2080472;28;20671;-61
2022/03/29 05:06:51;;;;;;;35.87;25.13;;;;;;;;;;2073068;28;20215;-64
2022/03/29 05:07:51;;;;;;;37.30;26.40;;;;;;;;;;2064759;28;20181;-62
2022/03/29 05:08:52;;;;;;;33.28;25.15;;;;;;;;;;2073402;28;20173;-63
2022/03/29 05:09:52;;;;;;;34.83;24.70;;;;;;;;;;2081989;28;20637;-63
2022/03/29 05:10:52;;;;;;;37.92;24.75;;;;;;;;;;2081671;28;20656;-60
2022/03/29 05:11:52;;;;;;;37.10;26.08;;;;;;;;;;2078925;28;20645;-63
2022/03/29 05:12:53;;;;;;;35.57;25.17;;;;;;;;;;2076952;28;20294;-63
2022/03/29 05:13:53;;;;;;;37.43;25.93;;;;;;;;;;2081435;28;20186;-61
2022/03/29 05:14:53;;;;;;;37.75;25.85;;;;;;;;;;2080934;28;20177;-61
2022/03/29 05:15:53;;;;;;;40.15;26.60;;;;;;;;;;2079076;28;20544;-63
2022/03/29 05:16:54;;;;;;;37.35;25.75;;;;;;;;;;2081801;28;20176;-62
2022/03/29 05:17:54;;;;;;;42.92;25.88;;;;;;;;;;2078337;28;20534;-65
2022/03/29 05:18:54;;;;;;;34.97;26.25;;;;;;;;;;2072691;28;20444;-63
2022/03/29 05:19:54;;;;;;;39.20;26.23;;;;;;;;;;2073317;28;20203;-64
2022/03/29 05:20:55;;;;;;;36.03;25.63;;;;;;;;;;2081907;28;20214;-63
2022/03/29 05:21:55;;;;;;;35.53;25.90;;;;;;;;;;2081818;28;20707;-61
2022/03/29 05:22:56;;;;;;;37.90;26.45;;;;;;;;;;2082323;28;20176;-65
2022/03/29 05:23:56;;;;;;;38.22;27.52;;;;;;;;;;2081478;28;20188;-63
2022/03/29 05:24:56;;;;;;;43.83;26.35;;;;;;;;;;2081941;28;20181;-63
2022/03/29 05:25:57;;;;;;;38.10;26.17;;;;;;;;;;2081517;28;20203;-62
2022/03/29 05:26:57;;;;;;;35.90;25.63;;;;;;;;;;2081783;28;20180;-62
2022/03/29 05:27:58;;;;;;;38.63;26.38;;;;;;;;;;2090742;28;20164;-63
2022/03/29 05:28:58;;;;;;;40.13;26.93;;;;;;;;;;2090768;28;20171;-62
2022/03/29 05:29:58;;;;;;;35.83;26.63;;;;;;;;;;2081122;28;20183;-60
2022/03/29 05:30:58;;;;;;;38.30;26.40;;;;;;;;;;2082171;28;20615;-61
2022/03/29 05:31:59;;;;;;;35.88;26.00;;;;;;;;;;2082510;28;20184;-62
2022/03/29 05:33:00;;;;;;;37.58;25.58;;;;;;;;;;2082475;28;20222;-65
2022/03/29 05:34:00;;;;;;;38.80;24.57;;;;;;;;;;2073851;28;20180;-59
2022/03/29 05:35:00;;;;;;;38.78;26.23;;;;;;;;;;2073720;28;20289;-61
2022/03/29 05:36:02;;;;;;;36.37;25.70;;;;;;;;;;2072550;28;20654;-62
2022/03/29 05:37:02;;;;;;;36.47;25.10;;;;;;;;;;2073661;28;20256;-62
2022/03/29 05:38:02;;;;;;;34.28;25.05;;;;;;;;;;2082267;28;20644;-59
2022/03/29 05:39:03;;;;;;;34.67;24.67;;;;;;;;;;2082194;28;20156;-59
2022/03/29 05:40:04;;;;;;;35.88;25.73;;;;;;;;;;2082765;28;20157;-62
2022/03/29 05:41:04;;;;;;;34.50;25.45;;;;;;;;;;2073456;28;20716;-63
2022/03/29 05:42:05;;;;;;;38.33;24.63;;;;;;;;;;2078439;28;20184;-61
2022/03/29 05:43:10;;;;;;;33.03;24.13;;;;;;;;;;2091271;28;20187;-64
2022/03/29 05:44:11;;;;;;;36.25;24.98;;;;;;;;;;2088813;28;20175;-61
2022/03/29 05:45:12;;;;;;;40.28;25.05;;;;;;;;;;2070805;28;20183;-58
2022/03/29 05:48:55;;;;;;;32.93;23.30;;;;;;;;;;2077333;28;20172;-62
2022/03/29 05:49:57;;;;;;;34.83;24.67;;;;;;;;;;2081151;28;20176;-63
2022/03/29 05:50:57;;;;;;;39.30;24.37;;;;;;;;;;2078330;28;20196;-62
2022/03/29 05:51:57;;;;;;;31.63;23.50;;;;;;;;;;2073922;28;20672;-61
2022/03/29 05:52:58;;;;;;;37.88;25.17;;;;;;;;;;2065991;28;20189;-60
2022/03/29 05:54:01;;;;;;;41.60;26.83;;;;;;;;;;2075230;28;20188;-60
2022/03/29 05:55:01;;;;;;;34.60;25.10;;;;;;;;;;2077606;28;20264;-60
2022/03/29 05:56:01;;;;;;;33.60;23.87;;;;;;;;;;2073894;28;20192;-63
2022/03/29 05:57:03;;;;;;;36.77;24.60;;;;;;;;;;2065969;28;20201;-60
2022/03/29 05:58:03;;;;;;;33.35;23.45;;;;;;;;;;2073967;28;20161;-61